Time;durP1;ratioP1;P1;durP2;ratioP2;P2;SDS_P1;SDS_P2;PMS_P1;PMS_P2;Temp;Humidity;BMP_temperature;BMP_pressure;BME280_temperature;BME280_humidity;BME280_pressure;Samples;Min_cycle;Max_cycle;Signal;HPM_P1;HPM_P2
2021/03/11 00:01:27;;;;;;;33.47;18.37;;;7.40;95.20;;;;;;5010747;28;20054;-84
2021/03/11 00:03:52;;;;;;;36.67;19.43;;;7.40;95.00;;;;;;4994206;28;20034;-86
2021/03/11 00:06:18;;;;;;;36.97;19.80;;;7.30;95.10;;;;;;5009090;28;20482;-84
2021/03/11 00:08:44;;;;;;;32.23;18.17;;;7.40;95.00;;;;;;4995042;28;20049;-83
2021/03/11 00:11:09;;;;;;;31.17;17.97;;;7.30;95.00;;;;;;4993374;28;20084;-84
2021/03/11 00:13:35;;;;;;;33.37;17.97;;;7.40;94.90;;;;;;4995133;28;20027;-84
2021/03/11 00:16:01;;;;;;;31.80;18.67;;;7.50;94.90;;;;;;4994796;28;20078;-84
2021/03/11 00:18:26;;;;;;;32.63;17.60;;;7.40;94.70;;;;;;4994613;28;20553;-84
2021/03/11 00:20:52;;;;;;;31.37;17.73;;;7.40;94.80;;;;;;5009402;28;20101;-84
2021/03/11 00:23:18;;;;;;;35.40;19.10;;;7.40;94.70;;;;;;4995145;28;20507;-84
2021/03/11 00:25:43;;;;;;;37.73;18.73;;;7.40;95.00;;;;;;5010135;28;20026;-84
2021/03/11 00:28:09;;;;;;;32.47;18.90;;;7.40;95.30;;;;;;5009705;28;20364;-84
2021/03/11 00:30:35;;;;;;;34.07;18.00;;;7.40;95.70;;;;;;5009161;28;20395;-84
2021/03/11 00:33:01;;;;;;;34.83;18.73;;;7.40;95.90;;;;;;4992872;28;20027;-84
2021/03/11 00:35:27;;;;;;;33.70;18.70;;;7.30;96.40;;;;;;4993023;28;20042;-84
2021/03/11 00:37:53;;;;;;;35.43;19.20;;;7.30;96.60;;;;;;4993575;28;20040;-84
2021/03/11 00:40:21;;;;;;;34.63;19.50;;;7.30;97.10;;;;;;5012713;28;20502;-84
2021/03/11 00:42:47;;;;;;;36.97;20.27;;;7.30;97.10;;;;;;5013681;28;20026;-84
2021/03/11 00:45:13;;;;;;;36.17;19.60;;;7.20;97.30;;;;;;4996896;28;20084;-84
2021/03/11 00:47:40;;;;;;;36.17;20.63;;;7.20;97.50;;;;;;4996562;28;20030;-84
2021/03/11 00:50:10;;;;;;;37.63;20.37;;;7.20;97.50;;;;;;5012799;28;20399;-84
2021/03/11 00:52:36;;;;;;;37.63;19.07;;;7.20;97.50;;;;;;4997048;28;20022;-84
2021/03/11 00:55:04;;;;;;;34.07;19.37;;;7.20;97.40;;;;;;4996859;28;20089;-84
2021/03/11 00:57:30;;;;;;;34.10;18.80;;;7.20;97.50;;;;;;4996615;28;20026;-84
2021/03/11 00:59:55;;;;;;;36.63;19.37;;;7.20;97.40;;;;;;4996154;28;20022;-84
2021/03/11 01:02:21;;;;;;;36.97;20.00;;;7.10;97.70;;;;;;4996689;28;20530;-84
2021/03/11 01:04:47;;;;;;;34.40;18.97;;;7.10;97.70;;;;;;4998249;28;20032;-84
2021/03/11 01:07:16;;;;;;;36.50;19.37;;;7.10;97.70;;;;;;4996677;28;20117;-84
2021/03/11 01:09:41;;;;;;;34.47;18.38;;;7.20;97.70;;;;;;4996881;28;20026;-84
2021/03/11 01:12:08;;;;;;;36.00;18.60;;;7.20;97.70;;;;;;5013260;28;20030;-84
2021/03/11 01:14:33;;;;;;;32.77;17.83;;;7.10;97.60;;;;;;4996772;28;20022;-84
2021/03/11 01:16:59;;;;;;;30.90;17.53;;;7.20;97.50;;;;;;4996746;28;20433;-84
2021/03/11 01:19:24;;;;;;;35.90;18.77;;;7.20;97.50;;;;;;4997412;28;20038;-84
2021/03/11 01:21:50;;;;;;;33.27;18.23;;;7.20;97.30;;;;;;4997490;28;20502;-84
2021/03/11 01:24:16;;;;;;;35.67;17.60;;;7.20;97.30;;;;;;4996408;28;20031;-84
2021/03/11 01:26:42;;;;;;;29.87;16.70;;;7.20;97.30;;;;;;4998254;28;20080;-84
2021/03/11 01:29:08;;;;;;;32.13;16.60;;;7.20;97.10;;;;;;4996224;28;20105;-84
2021/03/11 01:31:33;;;;;;;28.57;16.37;;;7.20;97.00;;;;;;5012504;28;20034;-84
2021/03/11 01:33:59;;;;;;;30.60;15.63;;;7.20;96.90;;;;;;5012787;28;20074;-84
2021/03/11 01:36:25;;;;;;;29.03;16.17;;;7.30;96.90;;;;;;4996451;28;20049;-84
2021/03/11 01:38:50;;;;;;;29.83;16.60;;;7.30;96.90;;;;;;4998631;28;20030;-84
2021/03/11 01:41:16;;;;;;;28.13;15.77;;;7.30;96.70;;;;;;4995265;28;20045;-84
2021/03/11 01:43:42;;;;;;;27.73;15.13;;;7.30;96.80;;;;;;4995726;28;20041;-84
2021/03/11 01:46:08;;;;;;;29.37;15.43;;;7.30;96.60;;;;;;4996362;28;20034;-84
2021/03/11 01:48:33;;;;;;;26.10;14.97;;;7.30;96.50;;;;;;4996053;28;20469;-84
2021/03/11 01:50:59;;;;;;;27.77;14.17;;;7.30;96.20;;;;;;4995088;28;20062;-84
2021/03/11 01:53:25;;;;;;;23.93;13.70;;;7.30;96.40;;;;;;4997917;28;20027;-84
2021/03/11 01:55:50;;;;;;;23.20;12.87;;;7.40;96.20;;;;;;4995883;28;20527;-84
2021/03/11 01:58:16;;;;;;;24.37;12.37;;;7.40;96.20;;;;;;4995651;28;20031;-84
2021/03/11 02:00:42;;;;;;;22.03;12.13;;;7.40;95.70;;;;;;4994724;28;20403;-84
2021/03/11 02:03:08;;;;;;;22.10;12.50;;;7.50;95.60;;;;;;5011523;28;20046;-84
2021/03/11 02:05:34;;;;;;;17.63;10.13;;;7.50;95.70;;;;;;4994993;28;20030;-84
2021/03/11 02:07:59;;;;;;;19.60;10.30;;;7.50;95.50;;;;;;4995176;28;20042;-84
2021/03/11 02:10:27;;;;;;;18.23;10.00;;;7.50;95.30;;;;;;4995044;28;20022;-84
2021/03/11 02:13:12;;;;;;;15.17;8.67;;;7.60;95.20;;;;;;5011785;28;20298;-84
2021/03/11 02:15:46;;;;;;;15.33;8.03;;;7.60;95.30;;;;;;4995736;28;20034;-84
2021/03/11 02:18:47;;;;;;;13.93;7.07;;;7.70;94.80;;;;;;4995446;28;20050;-84
2021/03/11 02:21:25;;;;;;;12.80;6.77;;;7.70;94.80;;;;;;4993983;28;20053;-84
2021/03/11 02:24:14;;;;;;;11.80;6.33;;;7.80;94.50;;;;;;4996924;28;20403;-84
2021/03/11 02:27:06;;;;;;;10.87;6.30;;;7.80;94.60;;;;;;4995712;28;20041;-84
2021/03/11 02:29:40;;;;;;;10.67;5.97;;;7.80;94.70;;;;;;5011088;28;20041;-84
2021/03/11 02:32:10;;;;;;;9.30;5.33;;;7.90;94.60;;;;;;4995337;28;20046;-85
2021/03/11 02:34:48;;;;;;;9.47;5.13;;;7.90;94.50;;;;;;5012197;28;20109;-84
2021/03/11 02:37:35;;;;;;;8.27;4.50;;;7.90;94.40;;;;;;4995363;28;20041;-84
2021/03/11 02:40:08;;;;;;;8.37;4.50;;;7.90;94.40;;;;;;4996699;28;20065;-84
2021/03/11 02:42:34;;;;;;;8.73;4.50;;;8.00;94.20;;;;;;4995188;28;20117;-84
2021/03/11 02:45:01;;;;;;;8.33;4.60;;;8.00;94.60;;;;;;4997466;28;20034;-84
2021/03/11 02:47:27;;;;;;;7.07;4.57;;;8.00;94.00;;;;;;4996921;28;20058;-84
2021/03/11 02:49:57;;;;;;;7.13;4.03;;;8.10;94.00;;;;;;4994887;28;20442;-84
2021/03/11 02:52:23;;;;;;;7.28;4.22;;;8.10;94.00;;;;;;4994810;28;20038;-84
2021/03/11 02:54:50;;;;;;;8.57;4.33;;;8.10;94.00;;;;;;4996559;28;20034;-84
2021/03/11 02:57:18;;;;;;;7.03;3.80;;;8.10;94.00;;;;;;4995140;28;20022;-84
2021/03/11 02:59:45;;;;;;;6.97;3.80;;;8.10;93.90;;;;;;4994151;28;20471;-84
2021/03/11 03:02:11;;;;;;;8.13;3.70;;;8.20;93.90;;;;;;4994438;28;20053;-84
2021/03/11 03:04:39;;;;;;;6.83;3.90;;;8.20;93.80;;;;;;4994642;28;20026;-84
2021/03/11 03:07:06;;;;;;;7.93;4.37;;;8.20;94.10;;;;;;5010819;28;20114;-84
2021/03/11 03:09:33;;;;;;;8.50;4.30;;;8.20;94.00;;;;;;5010164;28;20026;-84
2021/03/11 03:12:00;;;;;;;5.97;3.43;;;8.20;94.00;;;;;;5011156;28;20113;-84
2021/03/11 03:14:26;;;;;;;6.50;3.60;;;8.20;94.00;;;;;;4994518;28;20022;-84
2021/03/11 03:16:53;;;;;;;7.10;3.80;;;8.20;93.90;;;;;;4994383;28;20023;-84
2021/03/11 03:19:19;;;;;;;6.87;3.57;;;8.20;94.00;;;;;;4993618;28;20065;-84
2021/03/11 03:21:47;;;;;;;6.80;3.77;;;8.20;94.20;;;;;;4993258;28;20057;-84
2021/03/11 03:24:16;;;;;;;6.57;3.30;;;8.20;94.30;;;;;;4992794;28;20041;-84
2021/03/11 03:26:42;;;;;;;6.97;3.83;;;8.20;94.40;;;;;;4994437;28;20035;-84
2021/03/11 03:29:07;;;;;;;5.50;3.43;;;8.20;94.50;;;;;;4993396;28;20402;-84
2021/03/11 03:31:33;;;;;;;5.40;3.17;;;8.20;94.60;;;;;;4994162;28;20022;-84
2021/03/11 03:33:59;;;;;;;6.10;3.20;;;8.20;94.50;;;;;;5010482;28;20027;-84
2021/03/11 03:36:25;;;;;;;8.43;3.43;;;8.20;94.50;;;;;;4994217;28;20571;-84
2021/03/11 03:38:52;;;;;;;5.37;3.13;;;8.20;94.70;;;;;;5010679;28;20117;-84
2021/03/11 03:41:19;;;;;;;6.10;3.47;;;8.20;94.90;;;;;;4996027;28;20057;-84
2021/03/11 03:43:45;;;;;;;5.60;3.50;;;8.20;94.80;;;;;;4996021;28;20030;-84
2021/03/11 03:46:15;;;;;;;6.07;3.57;;;8.20;94.90;;;;;;4994272;28;20030;-84
2021/03/11 03:48:46;;;;;;;;;;;8.20;94.90;;;;;;4994482;28;20069;-84
2021/03/11 03:51:13;;;;;;;7.97;3.37;;;8.20;94.90;;;;;;4995002;28;19909;-84
2021/03/11 03:53:51;;;;;;;6.67;3.57;;;8.20;95.10;;;;;;4994039;28;20029;-84
2021/03/11 03:56:35;;;;;;;6.93;3.80;;;8.20;95.20;;;;;;4995210;28;20424;-84
2021/03/11 03:59:15;;;;;;;7.17;3.40;;;8.20;95.40;;;;;;4994096;28;20031;-84
2021/03/11 04:01:42;;;;;;;7.17;3.17;;;8.20;95.50;;;;;;5010043;28;20030;-84
2021/03/11 04:04:10;;;;;;;7.07;4.00;;;8.20;95.40;;;;;;4995806;28;20030;-84
2021/03/11 04:06:38;;;;;;;7.33;3.97;;;8.20;95.50;;;;;;4995491;28;20160;-84
2021/03/11 04:09:10;;;;;;;7.43;4.20;;;8.20;95.60;;;;;;4993427;28;20340;-84
2021/03/11 04:11:37;;;;;;;8.57;4.43;;;8.20;95.60;;;;;;5010488;28;20029;-84
2021/03/11 04:14:03;;;;;;;6.67;3.93;;;8.20;95.60;;;;;;4998198;28;20030;-84
2021/03/11 04:16:31;;;;;;;7.37;4.27;;;8.20;95.60;;;;;;5013910;28;20022;-84
2021/03/11 04:18:59;;;;;;;8.57;4.40;;;8.20;95.60;;;;;;4999100;28;20027;-84
2021/03/11 04:21:26;;;;;;;7.00;4.00;;;8.20;95.60;;;;;;4998950;28;20037;-84
2021/03/11 04:23:53;;;;;;;6.77;4.00;;;8.20;95.70;;;;;;4998121;28;20081;-84
2021/03/11 04:26:19;;;;;;;7.57;4.50;;;8.20;96.00;;;;;;4997765;28;20026;-84
2021/03/11 04:28:45;;;;;;;8.70;5.07;;;8.20;95.70;;;;;;4998740;28;20026;-84
2021/03/11 04:31:11;;;;;;;8.27;4.07;;;8.20;95.70;;;;;;4998937;28;20072;-85
2021/03/11 04:33:37;;;;;;;6.50;4.20;;;8.20;95.70;;;;;;4999077;28;20468;-84
2021/03/11 04:36:05;;;;;;;7.00;4.40;;;8.30;95.70;;;;;;4998068;28;20541;-84
2021/03/11 04:38:31;;;;;;;7.63;4.33;;;8.30;95.60;;;;;;4997545;28;20050;-84
2021/03/11 04:40:57;;;;;;;6.67;4.10;;;8.30;95.60;;;;;;4996919;28;20029;-84
2021/03/11 04:43:23;;;;;;;7.70;4.27;;;8.30;95.50;;;;;;4997015;28;20150;-84
2021/03/11 04:45:49;;;;;;;7.00;4.23;;;8.40;95.40;;;;;;5013872;28;20121;-84
2021/03/11 04:48:16;;;;;;;7.87;4.20;;;8.40;95.70;;;;;;4997843;28;20026;-84
2021/03/11 04:50:43;;;;;;;7.47;4.07;;;8.40;95.30;;;;;;4996528;28;20019;-84
2021/03/11 04:53:09;;;;;;;8.73;4.13;;;8.40;95.20;;;;;;4998648;28;20101;-84
2021/03/11 04:55:35;;;;;;;9.13;4.17;;;8.40;95.10;;;;;;4996889;28;20022;-84
2021/03/11 04:58:02;;;;;;;6.83;3.73;;;8.40;95.20;;;;;;4998368;28;20057;-84
2021/03/11 05:00:28;;;;;;;7.27;4.13;;;8.50;95.20;;;;;;4996648;28;20038;-85
2021/03/11 05:02:56;;;;;;;6.70;3.70;;;8.50;95.50;;;;;;4997975;28;20384;-84
2021/03/11 05:05:36;;;;;;;6.33;3.70;;;8.50;95.30;;;;;;4999062;28;20053;-84
2021/03/11 05:08:03;;;;;;;8.07;4.17;;;8.50;95.40;;;;;;4996780;28;20057;-83
2021/03/11 05:10:29;;;;;;;6.80;3.77;;;8.50;95.50;;;;;;4997848;28;20019;-84
2021/03/11 05:12:54;;;;;;;6.30;3.70;;;8.60;95.50;;;;;;4996945;28;20057;-84
2021/03/11 05:15:21;;;;;;;6.43;3.40;;;8.60;95.40;;;;;;4996943;28;20022;-84
2021/03/11 05:17:46;;;;;;;5.70;3.70;;;8.60;95.40;;;;;;4998757;28;20027;-84
2021/03/11 05:20:13;;;;;;;7.03;3.93;;;8.60;95.70;;;;;;4996586;28;20034;-84
2021/03/11 05:22:39;;;;;;;8.20;4.43;;;8.50;95.90;;;;;;4997923;28;20378;-84
2021/03/11 05:25:09;;;;;;;7.10;4.20;;;8.60;96.20;;;;;;4996766;28;20027;-84
2021/03/11 05:27:35;;;;;;;7.63;4.57;;;8.50;96.50;;;;;;4998097;28;20046;-84
2021/03/11 05:30:02;;;;;;;7.67;3.90;;;8.50;96.80;;;;;;4995947;28;20050;-84
2021/03/11 05:32:28;;;;;;;6.87;4.20;;;8.50;96.90;;;;;;4997277;28;20030;-84
2021/03/11 05:34:53;;;;;;;7.37;4.37;;;8.50;97.10;;;;;;4996382;28;20034;-84
2021/03/11 05:37:19;;;;;;;7.30;4.17;;;8.50;97.00;;;;;;4997753;28;20041;-84
2021/03/11 05:39:45;;;;;;;7.47;4.47;;;8.50;97.20;;;;;;4996981;28;20042;-84
2021/03/11 05:42:12;;;;;;;8.90;3.93;;;8.50;97.30;;;;;;4996139;28;20030;-84
2021/03/11 05:44:38;;;;;;;8.03;4.57;;;8.50;97.40;;;;;;4997674;28;20026;-84
2021/03/11 05:47:08;;;;;;;7.20;4.30;;;8.50;97.40;;;;;;4998120;28;20499;-84
2021/03/11 05:49:39;;;;;;;7.53;4.37;;;8.50;97.40;;;;;;4998119;28;20168;-84
2021/03/11 05:52:07;;;;;;;8.60;4.93;;;8.50;97.40;;;;;;5030204;23;20081;-86
2021/03/11 05:54:34;;;;;;;6.73;4.27;;;8.50;97.40;;;;;;5016577;28;20032;-86
2021/03/11 05:57:01;;;;;;;8.27;4.47;;;8.40;97.40;;;;;;5015749;28;20030;-86
2021/03/11 05:59:26;;;;;;;8.30;4.70;;;8.50;97.30;;;;;;5015068;28;20025;-86
2021/03/11 06:01:54;;;;;;;7.30;4.20;;;8.50;97.30;;;;;;5015344;28;20032;-86
2021/03/11 06:04:21;;;;;;;10.63;4.20;;;8.50;97.50;;;;;;5017032;28;20026;-85
2021/03/11 06:06:47;;;;;;;7.47;4.10;;;8.60;97.30;;;;;;5017071;28;20041;-85
2021/03/11 06:09:16;;;;;;;7.20;4.27;;;8.60;97.40;;;;;;5019897;28;20614;-84
2021/03/11 06:11:43;;;;;;;9.73;5.50;;;8.60;97.30;;;;;;5017384;28;20089;-84
2021/03/11 06:14:14;;;;;;;8.90;4.77;;;8.60;97.30;;;;;;5018798;28;20494;-84
2021/03/11 06:16:46;;;;;;;8.27;4.40;;;8.60;97.20;;;;;;5016919;28;20113;-84
2021/03/11 06:19:12;;;;;;;8.63;4.57;;;8.60;97.10;;;;;;5015884;28;20371;-84
2021/03/11 06:21:38;;;;;;;7.47;4.40;;;8.60;97.30;;;;;;5015790;28;20033;-84
2021/03/11 06:24:04;;;;;;;8.13;4.77;;;8.60;97.20;;;;;;5017023;28;20032;-85
2021/03/11 06:26:29;;;;;;;8.13;4.67;;;8.70;97.20;;;;;;5015623;28;20056;-84
2021/03/11 06:28:55;;;;;;;6.80;4.00;;;8.60;97.20;;;;;;5017342;28;20053;-84
2021/03/11 06:31:29;;;;;;;10.80;5.13;;;8.70;97.20;;;;;;5016942;28;21350;-85
2021/03/11 06:33:57;;;;;;;7.93;4.63;;;8.60;97.10;;;;;;5018118;28;20018;-84
2021/03/11 06:36:25;;;;;;;8.10;4.50;;;8.80;97.00;;;;;;5017542;28;20080;-84
2021/03/11 06:38:51;;;;;;;6.77;4.17;;;8.80;96.80;;;;;;5017270;28;20459;-85
2021/03/11 06:41:17;;;;;;;7.90;4.53;;;8.80;96.90;;;;;;5018314;28;20026;-84
2021/03/11 06:43:57;;;;;;;7.70;4.30;;;8.80;96.70;;;;;;5017521;28;20037;-85
2021/03/11 06:46:24;;;;;;;7.80;4.40;;;8.80;96.70;;;;;;5017379;28;20037;-85
2021/03/11 06:49:03;;;;;;;9.10;4.77;;;8.90;97.10;;;;;;5016877;28;20032;-85
2021/03/11 06:51:30;;;;;;;8.68;4.63;;;8.90;96.60;;;;;;5015170;28;20026;-85
2021/03/11 06:54:00;;;;;;;8.57;4.33;;;8.90;96.60;;;;;;5014903;28;20033;-84
2021/03/11 06:56:29;;;;;;;7.10;4.60;;;8.90;96.60;;;;;;5014389;28;20430;-84
2021/03/11 06:59:05;;;;;;;;;;;9.00;96.50;;;;;;5015385;28;20030;-84
2021/03/11 07:01:32;;;;;;;9.20;4.23;;;9.00;96.60;;;;;;5016183;28;20289;-84
2021/03/11 07:04:01;;;;;;;7.30;4.50;;;9.00;96.40;;;;;;5015160;28;20376;-85
2021/03/11 07:06:37;;;;;;;6.53;4.03;;;9.00;96.60;;;;;;5015492;28;20682;-85
2021/03/11 07:09:06;;;;;;;7.37;4.47;;;9.00;96.50;;;;;;5015290;28;20054;-85
2021/03/11 07:11:34;;;;;;;7.85;4.78;;;9.10;96.30;;;;;;5015309;28;20045;-84
2021/03/11 07:14:02;;;;;;;12.02;4.32;;;9.10;96.50;;;;;;5014664;28;20033;-84
2021/03/11 07:16:38;;;;;;;6.77;4.30;;;9.10;96.50;;;;;;5015557;28;20072;-85
2021/03/11 07:19:15;;;;;;;8.23;4.53;;;9.10;96.30;;;;;;5015120;28;20079;-84
2021/03/11 07:21:49;;;;;;;7.80;4.67;;;9.20;96.20;;;;;;5017217;28;20022;-84
2021/03/11 07:24:33;;;;;;;7.60;4.27;;;9.20;96.20;;;;;;5015635;28;20079;-85
2021/03/11 07:27:00;;;;;;;7.93;4.67;;;9.30;96.20;;;;;;5017217;28;20497;-85
2021/03/11 07:29:25;;;;;;;8.37;5.10;;;9.30;96.30;;;;;;5018159;28;20025;-85
2021/03/11 07:31:56;;;;;;;8.97;4.63;;;9.30;96.60;;;;;;5017959;28;20110;-85
2021/03/11 07:34:32;;;;;;;8.93;4.80;;;9.30;97.00;;;;;;5015997;28;20026;-84
2021/03/11 07:36:59;;;;;;;8.97;5.20;;;9.30;97.20;;;;;;5015895;28;20022;-85
2021/03/11 07:39:42;;;;;;;10.77;5.03;;;9.30;97.30;;;;;;5016224;28;20038;-84
2021/03/11 07:42:09;;;;;;;9.73;5.57;;;9.40;97.30;;;;;;5015121;28;20033;-84
2021/03/11 07:44:35;;;;;;;9.23;5.07;;;9.40;97.30;;;;;;5016256;28;20397;-84
2021/03/11 07:47:01;;;;;;;9.53;5.03;;;9.40;97.10;;;;;;5014440;28;20054;-85
2021/03/11 07:49:28;;;;;;;8.63;4.77;;;9.40;97.20;;;;;;5012624;28;20030;-85
2021/03/11 07:51:58;;;;;;;8.97;4.77;;;9.60;96.60;;;;;;5015859;28;20095;-85
2021/03/11 07:54:24;;;;;;;9.53;4.37;;;9.60;96.40;;;;;;5017258;28;20029;-84
2021/03/11 07:56:53;;;;;;;10.57;4.90;;;9.80;96.30;;;;;;5015206;28;20022;-84
2021/03/11 07:59:19;;;;;;;9.02;4.50;;;9.90;95.80;;;;;;5015743;28;20033;-85
2021/03/11 08:01:59;;;;;;;7.87;4.07;;;9.90;95.50;;;;;;5017268;28;20034;-85
2021/03/11 08:04:28;;;;;;;6.87;3.97;;;10.00;95.50;;;;;;5015217;28;20038;-85
2021/03/11 08:07:15;;;;;;;7.57;4.40;;;10.00;95.40;;;;;;5015988;28;20030;-85
2021/03/11 08:09:41;;;;;;;7.60;4.27;;;10.10;95.30;;;;;;5015285;28;20041;-84
2021/03/11 08:12:25;;;;;;;9.70;4.47;;;10.00;95.40;;;;;;5015912;28;20030;-84
2021/03/11 08:14:51;;;;;;;8.37;3.73;;;10.10;95.50;;;;;;5016736;28;20101;-85
2021/03/11 08:17:44;;;;;;;8.33;4.37;;;10.20;95.20;;;;;;5016551;28;20049;-85
2021/03/11 08:20:18;;;;;;;11.07;4.50;;;10.20;94.90;;;;;;5014951;28;20117;-84
2021/03/11 08:23:00;;;;;;;10.20;4.43;;;10.20;94.90;;;;;;5015596;28;20030;-84
2021/03/11 08:25:32;;;;;;;8.97;4.80;;;10.20;95.00;;;;;;5015050;28;20034;-86
2021/03/11 08:27:58;;;;;;;9.17;4.80;;;10.20;95.30;;;;;;5014993;28;20178;-85
2021/03/11 08:30:39;;;;;;;14.37;7.07;;;10.20;95.60;;;;;;5013681;28;20454;-85
2021/03/11 08:33:32;;;;;;;12.63;5.30;;;10.10;95.70;;;;;;5015052;28;20026;-86
2021/03/11 08:35:58;;;;;;;12.10;4.47;;;10.10;95.70;;;;;;5015346;28;20026;-85
2021/03/11 08:38:24;;;;;;;10.23;4.30;;;10.20;95.50;;;;;;5015010;28;20389;-85
2021/03/11 08:41:06;;;;;;;8.80;4.83;;;10.20;95.10;;;;;;5012753;28;20117;-86
2021/03/11 08:43:37;;;;;;;8.67;4.20;;;10.20;95.00;;;;;;5013939;28;20021;-86
2021/03/11 08:46:05;;;;;;;9.03;4.33;;;10.20;95.30;;;;;;5014626;28;20033;-86
2021/03/11 08:48:58;;;;;;;10.30;4.00;;;10.20;95.70;;;;;;5014681;28;20701;-86
2021/03/11 08:51:24;;;;;;;8.33;3.60;;;10.20;95.40;;;;;;5013765;28;20025;-85
2021/03/11 08:54:00;;;;;;;10.93;3.70;;;10.20;95.00;;;;;;5014405;28;20087;-86
2021/03/11 08:56:26;;;;;;;9.93;3.80;;;10.30;94.80;;;;;;5015670;28;20060;-86
2021/03/11 08:58:56;;;;;;;9.53;3.43;;;10.30;94.50;;;;;;5016264;28;20483;-86
2021/03/11 09:01:49;;;;;;;11.13;3.73;;;10.40;94.40;;;;;;5018952;28;20485;-86
2021/03/11 09:04:21;;;;;;;7.33;3.40;;;10.50;93.60;;;;;;5017884;28;20021;-86
2021/03/11 09:06:52;;;;;;;5.87;3.00;;;10.50;93.20;;;;;;5017630;28;20018;-86
2021/03/11 09:09:33;;;;;;;9.20;2.97;;;10.50;93.00;;;;;;5016102;28;20026;-86
2021/03/11 09:12:00;;;;;;;14.03;3.93;;;10.60;92.80;;;;;;5017902;28;20021;-86
2021/03/11 09:14:27;;;;;;;11.93;3.37;;;10.60;93.10;;;;;;5017958;28;20029;-85
2021/03/11 09:17:02;;;;;;;13.90;3.87;;;10.60;93.10;;;;;;5016592;28;20049;-86
2021/03/11 09:19:39;;;;;;;13.50;3.10;;;10.60;93.00;;;;;;5017521;28;20022;-85
2021/03/11 09:22:24;;;;;;;9.37;1.73;;;10.60;93.00;;;;;;5015695;28;20072;-86
2021/03/11 09:25:13;;;;;;;9.07;2.30;;;10.60;92.50;;;;;;5012362;28;20125;-86
2021/03/11 09:27:52;;;;;;;9.30;1.80;;;10.60;92.00;;;;;;5017096;28;20112;-85
2021/03/11 09:30:20;;;;;;;9.73;2.40;;;10.60;91.90;;;;;;5015555;28;19916;-86
2021/03/11 09:32:45;;;;;;;10.30;1.80;;;10.60;91.80;;;;;;5015387;28;20025;-85
2021/03/11 09:35:13;;;;;;;9.90;2.07;;;10.60;91.60;;;;;;5015831;28;20440;-85
2021/03/11 09:37:59;;;;;;;9.57;2.47;;;10.60;91.60;;;;;;5016061;28;20025;-86
2021/03/11 09:40:31;;;;;;;8.40;2.03;;;10.60;91.30;;;;;;5016738;28;20030;-86
2021/03/11 09:43:16;;;;;;;10.33;1.90;;;10.60;91.70;;;;;;5015416;28;20109;-86
2021/03/11 09:45:52;;;;;;;10.33;2.00;;;10.60;91.40;;;;;;5016013;28;20022;-86
2021/03/11 09:48:37;;;;;;;11.60;2.23;;;10.60;91.20;;;;;;5017040;28;20061;-86
2021/03/11 09:51:30;;;;;;;12.30;2.73;;;10.50;91.10;;;;;;5017718;28;20474;-85
2021/03/11 09:54:01;;;;;;;13.17;2.70;;;10.50;91.50;;;;;;5017014;28;20042;-85
2021/03/11 09:56:33;;;;;;;12.17;2.50;;;10.60;91.60;;;;;;5017771;28;20037;-84
2021/03/11 09:58:59;;;;;;;13.33;2.50;;;10.60;91.60;;;;;;5017324;28;20398;-85
2021/03/11 10:01:48;;;;;;;16.57;2.57;;;10.70;91.50;;;;;;5018893;28;20034;-85
2021/03/11 10:04:15;;;;;;;12.60;2.55;;;10.70;91.30;;;;;;5017692;28;20068;-85
2021/03/11 10:07:12;;;;;;;14.37;2.43;;;10.80;91.10;;;;;;5018255;28;20036;-84
2021/03/11 10:09:43;;;;;;;15.53;2.77;;;10.90;90.60;;;;;;5017867;28;20089;-85
2021/03/11 10:12:10;;;;;;;15.73;2.77;;;10.90;90.70;;;;;;5016747;28;20475;-85
2021/03/11 10:14:37;;;;;;;19.13;3.07;;;11.00;89.80;;;;;;5019482;28;20386;-85
2021/03/11 10:17:05;;;;;;;12.97;2.37;;;11.10;88.80;;;;;;5019958;28;20379;-85
2021/03/11 10:19:35;;;;;;;17.57;2.80;;;11.10;88.40;;;;;;5018720;28;20060;-84
2021/03/11 10:22:06;;;;;;;12.27;2.47;;;11.30;87.30;;;;;;5017560;28;20120;-84
2021/03/11 10:24:44;;;;;;;14.53;2.40;;;11.40;85.80;;;;;;5017933;28;20030;-84
2021/03/11 10:27:33;;;;;;;17.90;2.63;;;11.40;87.10;;;;;;5017195;28;20446;-84
2021/03/11 10:30:01;;;;;;;;;;;11.60;85.00;;;;;;5017604;28;20058;-85
2021/03/11 10:32:27;;;;;;;16.38;3.08;;;11.50;85.20;;;;;;5017587;28;19906;-85
2021/03/11 10:34:53;;;;;;;13.17;2.57;;;11.70;83.60;;;;;;5018324;28;20107;-85
2021/03/11 10:37:25;;;;;;;18.07;2.77;;;11.80;80.80;;;;;;5017582;28;20133;-84
2021/03/11 10:39:56;;;;;;;18.67;2.47;;;12.00;77.40;;;;;;5019093;28;20045;-84
2021/03/11 10:42:22;;;;;;;18.97;2.57;;;12.10;77.60;;;;;;5018222;28;20029;-85
2021/03/11 10:45:02;;;;;;;10.63;2.30;;;12.20;75.30;;;;;;5017649;28;20057;-85
2021/03/11 10:47:28;;;;;;;14.40;2.67;;;12.30;74.10;;;;;;5019708;28;20386;-85
2021/03/11 10:49:54;;;;;;;19.30;2.80;;;12.40;73.00;;;;;;5017561;28;20255;-85
2021/03/11 10:52:20;;;;;;;21.47;2.60;;;12.60;67.80;;;;;;5018126;28;20113;-85
2021/03/11 10:54:46;;;;;;;26.53;3.07;;;12.70;67.00;;;;;;5020186;28;20022;-85
2021/03/11 10:57:22;;;;;;;18.93;2.60;;;12.70;65.90;;;;;;5019032;28;20025;-85
2021/03/11 10:59:58;;;;;;;12.10;2.13;;;12.60;65.60;;;;;;5018520;28;20021;-85
2021/03/11 11:02:28;;;;;;;14.53;2.67;;;12.60;65.60;;;;;;5020490;28;20028;-86
2021/03/11 11:04:55;;;;;;;11.80;2.10;;;12.60;66.20;;;;;;5020350;28;20565;-85
2021/03/11 11:07:21;;;;;;;15.67;2.77;;;12.60;67.60;;;;;;5020994;28;20050;-85
2021/03/11 11:09:49;;;;;;;14.10;3.40;;;12.70;67.20;;;;;;5019905;28;20033;-85
2021/03/11 11:12:17;;;;;;;12.97;2.30;;;12.60;68.70;;;;;;5025457;28;20018;-85
2021/03/11 11:14:44;;;;;;;16.60;2.40;;;12.50;70.20;;;;;;5018839;28;20018;-84
2021/03/11 11:17:11;;;;;;;14.97;2.60;;;12.60;69.20;;;;;;5017971;28;20037;-85
2021/03/11 11:19:38;;;;;;;13.70;2.07;;;12.50;70.70;;;;;;5016231;28;20022;-85
2021/03/11 11:22:04;;;;;;;13.27;2.63;;;12.70;69.50;;;;;;5017062;28;20522;-84
2021/03/11 11:24:30;;;;;;;12.57;2.10;;;12.80;65.80;;;;;;5015809;28;20053;-85
2021/03/11 11:26:56;;;;;;;10.53;2.43;;;12.80;63.70;;;;;;5019562;28;20393;-85
2021/03/11 11:29:23;;;;;;;15.20;2.57;;;12.80;63.00;;;;;;5016176;28;20025;-84
2021/03/11 11:31:49;;;;;;;12.10;2.33;;;12.70;62.20;;;;;;5016994;28;20414;-85
2021/03/11 11:34:15;;;;;;;13.80;2.20;;;12.70;62.20;;;;;;5016704;28;20084;-85
2021/03/11 11:36:44;;;;;;;15.27;2.60;;;12.70;62.10;;;;;;5016370;28;20026;-84
2021/03/11 11:39:10;;;;;;;11.70;2.23;;;12.70;62.70;;;;;;5017781;28;20030;-84
2021/03/11 11:41:39;;;;;;;10.03;2.30;;;12.70;63.30;;;;;;5017286;28;20038;-85
2021/03/11 11:44:05;;;;;;;13.63;2.33;;;12.80;64.30;;;;;;5017041;28;20394;-85
2021/03/11 11:46:31;;;;;;;11.23;2.40;;;12.80;63.10;;;;;;5018231;28;20026;-85
2021/03/11 11:48:57;;;;;;;12.33;2.87;;;12.80;62.30;;;;;;5017674;28;20037;-85
2021/03/11 11:51:23;;;;;;;12.37;2.30;;;12.80;63.50;;;;;;5017937;28;20026;-84
2021/03/11 11:53:48;;;;;;;14.93;2.47;;;12.80;63.70;;;;;;5011758;28;20066;-84
2021/03/11 11:56:14;;;;;;;16.73;2.87;;;12.90;63.80;;;;;;5011568;28;20069;-86
2021/03/11 11:58:44;;;;;;;10.47;2.80;;;13.00;62.90;;;;;;5011531;28;20026;-84
2021/03/11 12:01:11;;;;;;;18.20;3.10;;;13.00;63.60;;;;;;5014237;28;20029;-84
2021/03/11 12:03:37;;;;;;;16.30;2.87;;;13.10;63.00;;;;;;5011621;28;20501;-84
2021/03/11 12:06:03;;;;;;;17.30;2.77;;;13.10;63.60;;;;;;5014571;28;20026;-84
2021/03/11 12:08:28;;;;;;;18.30;3.00;;;13.10;64.20;;;;;;5013483;28;20030;-85
2021/03/11 12:10:55;;;;;;;16.47;2.63;;;13.10;64.60;;;;;;5014146;28;20060;-84
2021/03/11 12:13:21;;;;;;;16.87;2.60;;;13.10;65.20;;;;;;5014310;28;20442;-85
2021/03/11 12:15:47;;;;;;;12.90;2.63;;;13.00;63.80;;;;;;5016251;28;20391;-84
2021/03/11 12:18:12;;;;;;;15.70;2.60;;;13.00;63.90;;;;;;5016348;28;20026;-84
2021/03/11 12:20:38;;;;;;;14.77;2.20;;;13.00;62.80;;;;;;5014051;28;20026;-84
2021/03/11 12:23:05;;;;;;;15.03;2.50;;;12.90;61.60;;;;;;5015093;28;20026;-85
2021/03/11 12:25:32;;;;;;;13.50;2.77;;;12.90;64.20;;;;;;5015943;28;20022;-84
2021/03/11 12:27:58;;;;;;;13.53;2.70;;;12.90;63.90;;;;;;5014298;28;20057;-84
2021/03/11 12:30:25;;;;;;;14.20;2.20;;;12.90;63.60;;;;;;5014810;28;20099;-85
2021/03/11 12:32:50;;;;;;;12.10;2.23;;;13.10;62.60;;;;;;5014440;28;20026;-84
2021/03/11 12:35:16;;;;;;;18.53;2.57;;;13.10;62.90;;;;;;5019221;28;20429;-84
2021/03/11 12:37:43;;;;;;;16.90;3.10;;;13.10;63.80;;;;;;5019075;28;20022;-84
2021/03/11 12:40:09;;;;;;;16.03;2.43;;;13.10;63.50;;;;;;5018294;28;20034;-84
2021/03/11 12:42:35;;;;;;;14.13;2.50;;;13.00;63.60;;;;;;5018212;28;20029;-85
2021/03/11 12:45:01;;;;;;;14.30;2.77;;;13.00;64.50;;;;;;5019668;28;20034;-85
2021/03/11 12:47:27;;;;;;;18.93;2.60;;;13.00;64.90;;;;;;5019114;28;20041;-84
2021/03/11 12:49:52;;;;;;;14.70;2.47;;;13.00;65.70;;;;;;5017919;28;20029;-85
2021/03/11 12:52:18;;;;;;;11.77;2.13;;;13.00;65.80;;;;;;5020621;28;20133;-84
2021/03/11 12:54:43;;;;;;;15.27;2.77;;;12.90;65.50;;;;;;5018667;28;20032;-84
2021/03/11 12:57:09;;;;;;;13.10;2.93;;;12.90;66.90;;;;;;5020022;28;20530;-85
2021/03/11 12:59:35;;;;;;;15.97;2.90;;;12.90;67.00;;;;;;5017784;28;20065;-85